Other Aviation Products
Issued by NWS

Home | Current Version | Previous Version | Text Only | Print | Product List | Glossary On
Versions: 1 2
000
NOAK58 PAWU 280248
OAVAWU
NATIONAL WEATHER SERVICE ALASKA AVIATION WEATHER UNIT
ANCHORAGE ALASKA

TO:    FORENSIC SERVICES MANAGER (W/OS23)
       NATIONAL WEATHER SERVICE
       C/O TELECOMMUNICATIONS GATEWAY
       SILVER SPRING, MD 20910

INFO:  ATTENTION ALASKA REGION - REGIONAL AVIATION METEOROLOGIST - W/AR1X1

ALPHA     N57AT, S1, PIC SAM BRICE (1SOB FATAL)


BRAVO     27/1900Z  NEAR BUTTE CREEK NORTH OF THE SALCHA RIVER (E OF PAFA)

CHARLIE   CRASHED UNDER UNKNOWN CIRCUMSTANCES


DELTA     METAR PAFA 271553Z 00000KT 10SM SCT075 BKN090 BKN150 06/00 A3004 RMK AO2 SLP179
          T00560000=
          METAR PAFA 271653Z 04003KT 10SM BKN085 BKN150 07/M01 A3005 RMK AO2 SLP180 VIRGA
          DSNT SE T00721006=
          METAR PAFA 271753Z COR 18011G21KT 10SM -RA SCT045 BKN085 BKN150 08/M02 A3005 RMK
          AO2 RAB51 SLP180 P0000 60000 T00831017 10083 20017 56000=


ECHO      UNAVAILABLE

FOXTROT   PAFA 27/1200Z   1000FT 212 2KTS
                          3000FT 190 7KTS
                          6000FT  182 15KTS
                                                   .

GOLF      FAAK49 PAWU 271216
          TANANA VLY FC...VALID UNTIL 280000
          ...CLOUDS/WX...
          SCT050 BKN080 TOP 120 LYRS ABV.
          AFT 21Z VCY NRN MTS ISOL BKN050 TOP 150 -SHRA.
          OTLK VALID 280000-280600...VFR.
          PASSES...ISABEL...MENTASTA...VFR.
           ...TURB...
           NIL SIG.
          ...ICE AND FZLVL...
          NIL SIG. FZLVL 035.

HOTEL     UNKNOWN

TRENZ, METEOROLOGIST, AAWU




USA.gov is the U.S. government's official web portal to all federal, state and local government web resources and services.